Time;durP1;ratioP1;P1;durP2;ratioP2;P2;SDS_P1;SDS_P2;PMS_P1;PMS_P2;Temp;Humidity;BMP_temperature;BMP_pressure;BME280_temperature;BME280_humidity;BME280_pressure;Samples;Min_cycle;Max_cycle;Signal;HPM_P1;HPM_P2
2022/07/14 00:01:26;;;;;;;8.77;1.73;;;;;;;21.12;49.88;99194.97;8429592;28;20051;-72
2022/07/14 00:05:26;;;;;;;4.68;1.92;;;;;;;21.13;49.89;99193.78;8428552;28;20541;-72
2022/07/14 00:09:27;;;;;;;4.43;1.85;;;;;;;21.10;50.07;99194.53;8429133;28;20036;-73
2022/07/14 00:13:28;;;;;;;3.15;1.83;;;;;;;21.08;50.37;99183.16;8428582;28;20411;-73
2022/07/14 00:17:29;;;;;;;5.22;1.75;;;;;;;21.04;50.60;99185.06;8424540;28;20060;-72
2022/07/14 00:21:30;;;;;;;4.68;1.63;;;;;;;21.03;50.62;99184.28;8420141;28;20460;-73
2022/07/14 00:25:31;;;;;;;2.80;1.67;;;;;;;20.99;51.12;99182.66;8427454;28;20044;-72
2022/07/14 00:29:34;;;;;;;11.15;3.53;;;;;;;20.91;51.60;99175.50;8418202;28;20082;-74
2022/07/14 00:33:36;;;;;;;3.63;1.83;;;;;;;20.79;52.37;99178.50;8374532;28;20495;-73
2022/07/14 00:37:37;;;;;;;2.92;1.73;;;;;;;20.71;53.03;99187.81;8421092;28;20083;-73
2022/07/14 00:41:38;;;;;;;4.55;1.95;;;;;;;20.65;53.33;99179.13;8416659;28;20054;-74
2022/07/14 00:45:39;;;;;;;4.40;1.90;;;;;;;20.57;54.24;99183.72;8390288;28;20036;-74
2022/07/14 00:49:40;;;;;;;12.88;1.98;;;;;;;20.46;54.52;99177.31;8427841;28;20449;-74
2022/07/14 00:53:42;;;;;;;4.30;1.80;;;;;;;20.34;55.34;99177.56;8419704;28;20074;-73
2022/07/14 00:57:44;;;;;;;3.15;2.38;;;;;;;20.13;56.39;99185.47;8427430;28;20048;-73
2022/07/14 01:01:45;;;;;;;7.18;2.00;;;;;;;20.05;57.40;99183.78;8420882;28;20056;-73
2022/07/14 01:05:46;;;;;;;5.10;1.80;;;;;;;19.91;58.03;99178.09;8419656;28;20045;-73
2022/07/14 01:09:47;;;;;;;10.13;2.25;;;;;;;19.76;58.78;99177.88;8420851;28;20040;-73
2022/07/14 01:13:48;;;;;;;3.58;2.00;;;;;;;19.65;58.74;99193.34;8404804;28;20044;-73
2022/07/14 01:17:49;;;;;;;6.55;2.22;;;;;;;19.59;59.21;99194.81;8425465;28;20621;-72
2022/07/14 01:21:54;;;;;;;5.22;2.22;;;;;;;19.49;59.67;99195.44;8390714;28;20096;-73
2022/07/14 01:25:55;;;;;;;4.28;1.92;;;;;;;19.42;60.06;99219.91;8424930;28;20044;-73
2022/07/14 01:29:56;;;;;;;5.57;2.22;;;;;;;19.35;59.91;99211.59;8424449;28;20137;-72
2022/07/14 01:33:56;;;;;;;3.92;2.28;;;;;;;19.38;59.57;99210.84;8426884;28;20819;-73
2022/07/14 01:37:58;;;;;;;6.25;2.33;;;;;;;19.40;59.11;99208.56;8427152;28;20138;-72
2022/07/14 01:41:58;;;;;;;5.50;2.08;;;;;;;19.47;58.41;99202.41;8424978;28;20071;-73
2022/07/14 01:45:59;;;;;;;5.68;2.50;;;;;;;19.50;58.11;99213.44;8425827;28;20131;-73
2022/07/14 01:50:00;;;;;;;7.40;2.42;;;;;;;19.42;58.67;99217.19;8418158;28;20127;-73
2022/07/14 01:54:04;;;;;;;3.03;2.10;;;;;;;19.34;58.76;99220.97;8409479;28;20488;-72
2022/07/14 01:58:05;;;;;;;7.18;2.30;;;;;;;19.34;58.58;99226.44;8418372;28;20040;-73
2022/07/14 02:02:06;;;;;;;6.75;2.35;;;;;;;19.38;58.11;99221.81;8425877;28;20042;-73
2022/07/14 02:06:07;;;;;;;5.60;1.95;;;;;;;19.32;58.75;99234.22;8426569;28;20122;-73
2022/07/14 02:14:33;;;;;;;8.00;2.20;;;;;;;19.15;58.70;99234.66;8422621;28;20055;-73
2022/07/14 02:18:34;;;;;;;4.22;2.30;;;;;;;19.16;58.39;99236.25;8425589;28;20063;-74
2022/07/14 02:22:35;;;;;;;7.72;2.42;;;;;;;19.05;58.85;99235.25;8431129;28;20048;-74
2022/07/14 02:26:38;;;;;;;6.35;2.40;;;;;;;18.86;59.64;99233.31;8431785;28;20112;-74
2022/07/14 02:30:39;;;;;;;6.47;2.38;;;;;;;18.74;60.17;99237.00;8424455;28;20048;-73
2022/07/14 02:34:40;;;;;;;5.20;2.33;;;;;;;18.65;61.44;99239.16;8419745;28;20070;-72
2022/07/14 02:38:41;;;;;;;5.35;2.60;;;;;;;18.51;61.59;99238.81;8395156;28;20142;-73
2022/07/14 02:42:42;;;;;;;9.77;2.40;;;;;;;18.40;62.27;99243.28;8366479;28;20408;-73
2022/07/14 02:46:43;;;;;;;6.70;2.55;;;;;;;18.26;62.77;99229.25;8426609;28;20155;-73
2022/07/14 02:50:45;;;;;;;6.15;2.70;;;;;;;18.15;63.13;99220.81;8427831;28;20056;-73
2022/07/14 02:54:45;;;;;;;6.53;3.15;;;;;;;18.03;63.83;99229.91;8428912;28;20093;-73
2022/07/14 02:58:46;;;;;;;7.30;2.47;;;;;;;17.89;64.40;99256.91;8427552;28;20131;-73
2022/07/14 03:02:47;;;;;;;4.88;2.80;;;;;;;17.83;64.58;99263.78;8431503;28;20040;-74
2022/07/14 03:06:49;;;;;;;4.65;3.10;;;;;;;17.76;65.01;99252.69;8392619;28;20049;-73
2022/07/14 03:10:49;;;;;;;4.47;2.58;;;;;;;17.63;65.61;99253.91;8410893;28;20055;-75
2022/07/14 03:14:50;;;;;;;7.10;3.13;;;;;;;17.55;65.99;99252.13;8426307;28;20518;-73
2022/07/14 03:18:51;;;;;;;4.85;3.03;;;;;;;17.50;66.13;99266.03;8431132;28;20072;-73
2022/07/14 03:22:53;;;;;;;8.25;2.72;;;;;;;17.44;66.96;99272.91;8411765;28;20412;-74
2022/07/14 03:26:54;;;;;;;4.93;2.65;;;;;;;17.37;68.06;99278.16;8408592;28;20044;-75
2022/07/14 03:30:56;;;;;;;4.75;2.90;;;;;;;17.27;68.18;99277.53;8402866;28;20052;-74
2022/07/14 03:34:59;;;;;;;6.13;2.97;;;;;;;17.20;68.49;99285.50;8403686;28;20036;-73
2022/07/14 03:39:01;;;;;;;4.35;2.60;;;;;;;17.13;68.83;99284.53;8430780;28;20063;-72
2022/07/14 03:43:02;;;;;;;5.57;2.70;;;;;;;17.09;69.26;99292.59;8425946;28;20072;-74
2022/07/14 03:47:03;;;;;;;4.88;2.90;;;;;;;17.06;70.00;99296.03;8423102;28;20052;-72
2022/07/14 03:51:04;;;;;;;6.43;2.63;;;;;;;17.09;70.54;99300.78;8422223;28;20983;-73
2022/07/14 03:55:05;;;;;;;5.18;2.80;;;;;;;17.13;70.71;99301.66;8377220;28;20392;-72
2022/07/14 03:59:10;;;;;;;8.80;3.10;;;;;;;17.29;70.58;99305.25;8429703;28;20040;-72
2022/07/14 04:03:11;;;;;;;11.32;2.95;;;;;;;17.52;70.19;99323.81;8420542;28;20442;-73
2022/07/14 04:07:12;;;;;;;5.95;3.00;;;;;;;17.69;69.96;99324.31;8424377;28;20044;-72
2022/07/14 04:11:14;;;;;;;4.05;2.72;;;;;;;17.91;69.43;99336.59;8415477;28;20047;-73
2022/07/14 04:15:15;;;;;;;4.13;3.00;;;;;;;18.09;68.63;99332.34;8377751;28;20048;-73
2022/07/14 04:19:16;;;;;;;7.78;2.95;;;;;;;18.27;67.81;99342.94;8425505;28;20450;-73
2022/07/14 04:23:18;;;;;;;6.32;3.45;;;;;;;18.35;67.89;99344.69;8429365;28;20044;-73
2022/07/14 04:27:19;;;;;;;5.68;3.05;;;;;;;18.40;67.69;99341.72;8425590;28;20056;-74
2022/07/14 04:31:20;;;;;;;10.02;3.17;;;;;;;18.40;67.75;99347.16;8426642;28;20549;-73
2022/07/14 04:35:21;;;;;;;5.60;3.00;;;;;;;18.37;68.25;99347.88;8408061;28;20045;-73
2022/07/14 04:39:22;;;;;;;6.85;3.60;;;;;;;18.27;68.46;99348.41;8403298;28;20131;-73
2022/07/14 04:43:23;;;;;;;7.18;3.53;;;;;;;18.21;68.76;99344.34;8361946;28;20040;-74
2022/07/14 04:47:24;;;;;;;5.50;3.03;;;;;;;18.22;68.71;99362.34;8404387;28;20536;-74
2022/07/14 04:55:44;;;;;;;4.78;3.45;;;;;;;18.25;69.50;99356.16;8418860;28;20056;-74
2022/07/14 04:59:46;;;;;;;10.32;3.78;;;;;;;18.28;69.71;99372.66;8399157;28;20183;-74
2022/07/14 05:03:47;;;;;;;6.13;3.63;;;;;;;18.32;70.37;99367.28;8406914;28;20483;-74
2022/07/14 05:07:48;;;;;;;6.00;3.83;;;;;;;18.34;70.17;99370.47;8418898;28;20539;-74
2022/07/14 05:11:49;;;;;;;6.63;3.78;;;;;;;18.45;69.97;99372.28;8423238;28;20047;-74
2022/07/14 05:15:51;;;;;;;8.57;4.00;;;;;;;18.55;69.93;99381.94;8404777;28;20049;-74
2022/07/14 05:19:52;;;;;;;9.20;3.80;;;;;;;18.63;69.58;99378.22;8379276;28;20503;-75
2022/07/14 05:23:53;;;;;;;5.30;3.85;;;;;;;18.72;69.72;99376.06;8372171;28;20067;-73
2022/07/14 05:27:55;;;;;;;9.13;3.88;;;;;;;18.80;69.28;99377.84;8413129;28;20044;-74
2022/07/14 05:32:03;;;;;;;6.28;3.67;;;;;;;18.90;69.32;99366.34;8425144;28;20488;-74
2022/07/14 05:36:04;;;;;;;7.30;4.10;;;;;;;19.01;69.23;99379.44;8426159;28;20101;-74
2022/07/14 05:40:05;;;;;;;5.70;3.95;;;;;;;19.15;69.26;99387.97;8422706;28;20570;-73
2022/07/14 05:44:06;;;;;;;7.38;3.97;;;;;;;19.30;68.82;99378.91;8419161;28;20078;-73
2022/07/14 05:48:07;;;;;;;6.65;4.45;;;;;;;19.42;68.42;99381.50;8418944;28;20048;-74
2022/07/14 05:52:12;;;;;;;7.68;3.90;;;;;;;19.56;68.25;99390.06;8418167;28;20478;-74
2022/07/14 05:56:16;;;;;;;6.28;4.05;;;;;;;19.70;67.86;99387.59;8366289;28;20048;-74
2022/07/14 06:00:17;;;;;;;8.82;4.50;;;;;;;19.83;67.63;99386.25;8423620;28;20075;-74
2022/07/14 06:04:19;;;;;;;8.07;4.15;;;;;;;20.00;67.15;99389.69;8400722;28;20067;-74
2022/07/14 06:08:20;;;;;;;13.52;3.90;;;;;;;20.01;67.33;99388.53;8426985;28;20511;-74
2022/07/14 06:12:21;;;;;;;5.82;3.90;;;;;;;20.02;66.79;99398.34;8385722;28;20555;-75
2022/07/14 06:16:22;;;;;;;7.53;3.47;;;;;;;20.06;66.55;99393.72;8391563;28;20055;-74
2022/07/14 06:20:23;;;;;;;6.45;3.70;;;;;;;20.14;66.33;99398.97;8393905;28;20052;-73
2022/07/14 06:24:23;;;;;;;4.78;3.17;;;;;;;20.39;65.63;99402.16;8426242;28;20074;-74
2022/07/14 06:28:26;;;;;;;5.93;3.00;;;;;;;20.60;64.99;99401.72;8426979;28;20135;-74
2022/07/14 06:32:27;;;;;;;6.00;2.90;;;;;;;20.78;63.66;99402.75;8427373;28;20476;-73
2022/07/14 06:36:28;;;;;;;5.82;2.50;;;;;;;20.85;63.14;99400.13;8391209;28;20127;-73
2022/07/14 06:40:29;;;;;;;3.53;2.13;;;;;;;20.87;63.24;99405.25;8412953;28;20048;-74
2022/07/14 06:44:33;;;;;;;5.30;2.67;;;;;;;20.80;62.81;99399.66;8392132;28;20052;-74
2022/07/14 06:48:37;;;;;;;3.97;2.22;;;;;;;20.79;62.20;99403.56;8390737;28;20051;-74
2022/07/14 06:52:38;;;;;;;5.93;2.28;;;;;;;20.73;61.70;99399.56;8406510;28;20053;-73
2022/07/14 06:56:39;;;;;;;3.08;2.28;;;;;;;20.70;62.14;99394.81;8422305;28;20063;-74
2022/07/14 07:00:40;;;;;;;7.18;2.45;;;;;;;20.56;62.47;99401.66;8427486;28;20044;-75
2022/07/14 07:04:41;;;;;;;7.43;2.60;;;;;;;20.42;62.66;99395.13;8428042;28;20467;-73
2022/07/14 07:08:42;;;;;;;11.63;2.90;;;;;;;20.41;63.36;99399.81;8432673;28;20058;-74
2022/07/14 07:12:43;;;;;;;5.68;2.85;;;;;;;20.50;63.11;99402.34;8429552;28;20040;-73
2022/07/14 07:16:46;;;;;;;6.25;2.80;;;;;;;20.69;63.34;99393.22;8407375;28;20056;-74
2022/07/14 07:20:47;;;;;;;6.85;2.80;;;;;;;20.91;62.71;99389.63;8418288;28;20438;-74
2022/07/14 07:24:48;;;;;;;5.57;3.35;;;;;;;20.95;61.99;99384.97;8432940;28;20040;-74
2022/07/14 07:28:49;;;;;;;8.23;3.10;;;;;;;20.98;62.88;99389.75;8432484;28;20093;-74
2022/07/14 07:32:50;;;;;;;6.22;3.20;;;;;;;21.20;62.97;99380.66;8432118;28;20044;-74
2022/07/14 07:36:51;;;;;;;9.18;3.17;;;;;;;21.49;61.84;99366.09;8426035;28;20052;-74
2022/07/14 07:40:53;;;;;;;6.28;3.17;;;;;;;21.77;62.41;99359.34;8425244;28;20052;-75
2022/07/14 07:44:55;;;;;;;5.35;3.50;;;;;;;21.80;61.69;99358.56;8424187;28;20059;-74
2022/07/14 07:48:56;;;;;;;6.45;3.40;;;;;;;21.80;61.66;99369.56;8429140;28;20116;-74
2022/07/14 07:52:57;;;;;;;8.90;3.53;;;;;;;21.79;61.75;99362.50;8417397;28;20052;-74
2022/07/14 07:56:59;;;;;;;8.57;3.15;;;;;;;22.01;60.89;99364.31;8426036;28;20059;-74
2022/07/14 08:01:01;;;;;;;5.60;2.83;;;;;;;22.15;60.05;99374.69;8430983;28;20072;-73
2022/07/14 08:05:02;;;;;;;7.43;2.80;;;;;;;22.31;59.99;99384.22;8431184;28;20415;-74
2022/07/14 08:09:03;;;;;;;4.82;2.67;;;;;;;22.20;59.66;99388.88;8430379;28;20071;-73
2022/07/14 08:13:04;;;;;;;9.32;2.53;;;;;;;22.12;59.61;99392.72;8430195;28;20040;-72
2022/07/14 08:17:05;;;;;;;3.90;2.60;;;;;;;21.92;59.50;99386.59;8430845;28;20048;-74
2022/07/14 08:21:06;;;;;;;5.88;2.33;;;;;;;21.89;59.38;99392.03;8430471;28;20126;-73
2022/07/14 08:25:08;;;;;;;3.97;2.40;;;;;;;21.89;60.23;99389.28;8393591;28;20060;-73
2022/07/14 08:29:12;;;;;;;7.65;2.30;;;;;;;22.14;59.75;99395.88;8430189;28;20135;-73
2022/07/14 08:33:13;;;;;;;5.13;2.25;;;;;;;22.14;58.66;99379.38;8430265;28;20044;-73
2022/07/14 08:37:14;;;;;;;10.68;2.50;;;;;;;22.29;58.21;99386.59;8430170;28;20101;-73
2022/07/14 08:41:15;;;;;;;6.88;2.60;;;;;;;22.44;57.98;99381.19;8429989;28;20457;-72
2022/07/14 08:45:18;;;;;;;5.45;1.85;;;;;;;22.86;56.19;99373.28;8415587;28;20044;-72
2022/07/14 08:49:19;;;;;;;5.32;2.40;;;;;;;22.92;56.72;99385.50;8429006;28;20062;-73
2022/07/14 08:53:21;;;;;;;8.95;2.40;;;;;;;22.88;55.48;99373.69;8351102;28;20057;-73
2022/07/14 08:57:22;;;;;;;4.55;2.10;;;;;;;22.82;56.22;99357.91;8361755;28;20106;-73
2022/07/14 09:01:26;;;;;;;10.13;2.20;;;;;;;22.74;56.83;99359.81;8362531;28;20198;-74
2022/07/14 09:05:27;;;;;;;4.72;2.30;;;;;;;22.65;56.82;99365.63;8349589;28;20057;-74
2022/07/14 09:09:34;;;;;;;5.13;2.60;;;;;;;22.87;56.39;99366.59;8360689;28;20451;-72
2022/07/14 09:13:35;;;;;;;6.97;2.85;;;;;;;23.23;56.14;99361.28;8313329;28;20082;-73
2022/07/14 09:17:52;;;;;;;7.43;2.53;;;;;;;23.04;56.41;99354.91;8311077;28;20055;-73
2022/07/14 09:21:55;;;;;;;8.50;2.88;;;;;;;23.09;55.71;99346.25;8361969;28;20052;-74
2022/07/14 09:26:15;;;;;;;3.45;2.60;;;;;;;23.14;55.33;99348.66;8362785;28;20052;-74
2022/07/14 09:30:16;;;;;;;9.57;3.00;;;;;;;23.43;55.44;99348.75;8322129;28;20068;-72
2022/07/14 09:34:27;;;;;;;5.25;2.38;;;;;;;23.71;54.38;99348.88;8360984;28;20135;-73
2022/07/14 09:38:30;;;;;;;5.07;2.60;;;;;;;23.97;53.73;99351.28;8315324;28;20045;-73
2022/07/14 09:42:51;;;;;;;8.88;2.70;;;;;;;24.04;53.69;99355.22;8359732;28;20045;-73
2022/07/14 09:46:57;;;;;;;10.85;2.80;;;;;;;24.05;53.50;99334.75;8305443;28;20439;-74
2022/07/14 09:51:05;;;;;;;7.85;2.85;;;;;;;24.06;53.54;99341.84;8369653;28;20075;-74
2022/07/14 09:55:06;;;;;;;6.57;2.60;;;;;;;24.14;53.05;99337.91;8387690;28;20557;-73
2022/07/14 09:59:07;;;;;;;6.25;2.75;;;;;;;24.12;53.10;99329.22;8424929;28;20461;-73
2022/07/14 10:03:08;;;;;;;5.75;2.60;;;;;;;24.39;54.12;99322.94;8421603;28;20040;-73
2022/07/14 10:07:10;;;;;;;7.43;2.83;;;;;;;24.35;53.53;99315.84;8391172;28;20407;-72
2022/07/14 10:11:11;;;;;;;6.07;2.97;;;;;;;24.64;53.37;99317.38;8422838;28;20129;-73
2022/07/14 10:15:13;;;;;;;6.25;2.65;;;;;;;24.47;52.37;99304.41;8427488;28;20096;-75
2022/07/14 10:19:15;;;;;;;9.13;3.20;;;;;;;24.64;52.09;99317.38;8408292;28;20408;-74
2022/07/14 10:23:18;;;;;;;5.68;3.00;;;;;;;24.58;52.34;99324.50;8417304;28;20048;-75
2022/07/14 10:27:19;;;;;;;5.07;2.50;;;;;;;24.38;52.91;99320.56;8397248;28;20385;-75
2022/07/14 10:31:28;;;;;;;5.63;2.70;;;;;;;24.18;53.20;99322.16;8422815;28;20043;-74
2022/07/14 10:35:32;;;;;;;9.65;2.55;;;;;;;24.00;53.88;99322.91;8428135;28;20518;-74
2022/07/14 10:39:41;;;;;;;5.75;3.13;;;;;;;23.95;53.86;99326.06;8432932;28;20058;-76
2022/07/14 10:43:54;;;;;;;;;;;;;;;23.98;54.26;99325.28;8422364;28;20114;-74
2022/07/14 10:47:55;;;;;;;5.43;3.00;;;;;;;23.93;54.62;99316.59;8389659;28;19986;-76
2022/07/14 10:51:57;;;;;;;13.27;3.33;;;;;;;24.05;54.14;99318.19;8417714;28;20077;-76
2022/07/14 10:55:58;;;;;;;5.68;3.40;;;;;;;24.25;52.73;99311.13;8424287;28;20051;-74
2022/07/14 10:59:59;;;;;;;6.05;2.80;;;;;;;24.69;51.94;99308.69;8425370;28;20040;-75
2022/07/14 11:04:01;;;;;;;6.63;3.30;;;;;;;25.08;51.93;99296.75;8416074;28;20048;-74
2022/07/14 11:08:12;;;;;;;6.65;2.97;;;;;;;25.18;51.49;99301.44;8431757;28;20447;-75
2022/07/14 11:12:14;;;;;;;7.13;3.33;;;;;;;25.40;50.63;99286.34;8417442;28;20068;-75
2022/07/14 11:16:18;;;;;;;6.47;2.80;;;;;;;25.10;50.06;99284.13;8424412;28;20105;-75
2022/07/14 11:20:49;;;;;;;4.78;2.63;;;;;;;24.91;50.81;99281.81;8376669;28;20056;-75
2022/07/14 11:24:56;;;;;;;6.93;2.67;;;;;;;24.76;51.28;99289.34;8383991;28;20048;-75
2022/07/14 11:28:58;;;;;;;5.57;2.80;;;;;;;24.87;51.53;99277.47;8405286;28;20071;-74
2022/07/14 11:33:00;;;;;;;5.05;2.42;;;;;;;25.36;50.73;99263.47;8423958;28;20044;-73
2022/07/14 11:37:03;;;;;;;7.75;2.58;;;;;;;25.44;48.81;99264.97;8381380;28;20044;-74
2022/07/14 11:41:09;;;;;;;5.63;2.50;;;;;;;25.44;49.36;99270.50;8425689;28;20574;-74
2022/07/14 11:45:11;;;;;;;8.93;2.70;;;;;;;25.44;49.79;99273.28;8422463;28;20056;-74
2022/07/14 11:49:12;;;;;;;8.35;3.17;;;;;;;25.47;49.09;99266.97;8401666;28;20059;-74
2022/07/14 11:53:15;;;;;;;8.45;3.40;;;;;;;25.23;49.53;99259.56;8430605;28;20098;-74
2022/07/14 11:57:17;;;;;;;7.03;3.45;;;;;;;25.46;49.74;99262.63;8394725;28;20065;-75
2022/07/14 12:01:20;;;;;;;7.30;3.78;;;;;;;25.93;47.84;99252.03;8372455;28;20051;-76
2022/07/14 12:05:28;;;;;;;6.03;3.35;;;;;;;26.24;47.91;99239.91;8413036;28;20049;-75
2022/07/14 12:09:33;;;;;;;7.47;3.58;;;;;;;26.48;46.92;99238.09;8424493;28;20043;-76
2022/07/14 12:13:53;;;;;;;11.63;3.72;;;;;;;26.71;46.98;99226.34;8407208;28;21317;-76
2022/07/14 12:18:00;;;;;;;6.85;3.45;;;;;;;26.96;45.53;99226.88;8359536;28;20172;-75
2022/07/14 12:22:04;;;;;;;13.57;3.35;;;;;;;26.74;46.46;99223.56;8420669;28;20416;-75
2022/07/14 12:26:05;;;;;;;5.75;3.10;;;;;;;26.47;45.93;99217.94;8408272;28;20040;-75
2022/07/14 12:30:06;;;;;;;7.82;3.20;;;;;;;26.22;46.93;99217.41;8420355;28;20519;-75
2022/07/14 12:34:08;;;;;;;7.03;3.30;;;;;;;25.99;47.61;99211.66;8425191;28;20052;-74
2022/07/14 12:38:13;;;;;;;10.55;3.70;;;;;;;25.83;47.81;99197.56;8402710;28;20078;-75
2022/07/14 12:42:15;;;;;;;9.05;3.45;;;;;;;26.62;47.36;99198.38;8397012;28;20051;-75
2022/07/14 12:46:23;;;;;;;9.10;3.00;;;;;;;27.10;46.94;99200.94;8424537;28;20056;-75
2022/07/14 12:50:25;;;;;;;5.95;2.80;;;;;;;26.96;45.48;99196.41;8425676;28;20071;-75
2022/07/14 12:54:34;;;;;;;7.95;2.92;;;;;;;26.42;46.05;99196.22;8391476;28;20052;-75
2022/07/14 12:58:36;;;;;;;10.90;2.72;;;;;;;26.62;45.42;99187.28;8376372;28;20048;-74
2022/07/14 13:02:37;;;;;;;3.80;2.75;;;;;;;26.68;45.43;99185.63;8410963;28;20048;-75
2022/07/14 13:06:46;;;;;;;5.00;3.13;;;;;;;26.85;44.85;99195.72;8357996;28;20056;-75
2022/07/14 13:10:57;;;;;;;6.68;2.90;;;;;;;27.26;44.31;99182.50;8358128;28;20467;-75
2022/07/14 13:15:08;;;;;;;5.20;3.10;;;;;;;27.51;44.60;99192.44;8334432;28;20044;-75
2022/07/14 13:19:21;;;;;;;5.82;3.00;;;;;;;27.19;44.51;99182.59;8357477;28;20045;-76
2022/07/14 13:23:30;;;;;;;6.70;2.70;;;;;;;26.77;45.19;99172.06;8357781;28;20128;-74
2022/07/14 13:27:31;;;;;;;6.07;2.70;;;;;;;26.81;44.95;99164.47;8353869;28;20044;-75
2022/07/14 13:31:33;;;;;;;8.93;2.90;;;;;;;26.52;45.15;99174.34;8355333;28;20128;-75
2022/07/14 13:35:34;;;;;;;7.85;3.00;;;;;;;26.70;44.66;99155.53;8370212;28;20492;-75
2022/07/14 13:39:36;;;;;;;5.60;2.90;;;;;;;27.03;43.99;99167.78;8426548;28;20052;-75
2022/07/14 13:43:38;;;;;;;7.47;2.75;;;;;;;26.58;44.01;99158.84;8427662;28;20487;-75
2022/07/14 13:47:41;;;;;;;4.38;2.60;;;;;;;26.47;43.90;99157.00;8423650;28;21246;-75
2022/07/14 13:56:05;;;;;;;3.95;2.63;;;;;;;26.36;45.69;99153.56;8412582;28;20064;-74
2022/07/14 14:00:06;;;;;;;4.88;2.60;;;;;;;29.23;40.45;99159.00;8389562;28;20048;-74
2022/07/14 14:04:08;;;;;;;5.60;2.90;;;;;;;28.86;39.50;99147.13;8426742;28;20044;-74
2022/07/14 14:08:10;;;;;;;4.60;2.50;;;;;;;27.78;40.80;99134.91;8373342;28;20052;-75
2022/07/14 14:12:11;;;;;;;6.90;2.55;;;;;;;27.14;42.64;99130.38;8417026;28;20040;-75
2022/07/14 14:16:12;;;;;;;5.97;2.50;;;;;;;26.74;44.31;99123.03;8373442;28;20532;-74
2022/07/14 14:20:13;;;;;;;8.15;3.13;;;;;;;27.16;43.33;99122.44;8412885;28;20420;-74
2022/07/14 14:24:16;;;;;;;5.82;2.70;;;;;;;28.08;41.67;99115.31;8417798;28;20063;-74
2022/07/14 14:28:19;;;;;;;5.93;2.25;;;;;;;30.78;36.23;99108.75;8408432;28;20048;-74
2022/07/14 14:32:21;;;;;;;7.30;2.78;;;;;;;32.84;33.50;99108.84;8417021;28;20048;-74
2022/07/14 14:36:22;;;;;;;5.00;2.40;;;;;;;32.22;34.19;99103.19;8355687;28;20084;-74
2022/07/14 14:40:23;;;;;;;4.47;2.63;;;;;;;30.26;36.61;99101.50;8322905;28;20060;-74
2022/07/14 14:44:24;;;;;;;3.85;2.50;;;;;;;29.30;37.67;99108.75;8354997;28;20060;-74
2022/07/14 14:48:25;;;;;;;8.10;2.65;;;;;;;28.61;38.75;99102.38;8355510;28;20053;-74
2022/07/14 14:52:27;;;;;;;5.78;2.63;;;;;;;28.34;38.58;99105.31;8349889;28;20045;-74
2022/07/14 14:56:28;;;;;;;5.32;2.40;;;;;;;28.17;40.12;99111.25;8314988;28;20139;-74
2022/07/14 15:00:29;;;;;;;5.72;2.80;;;;;;;28.18;39.71;99113.59;8342280;28;20546;-75
2022/07/14 15:04:30;;;;;;;8.95;2.40;;;;;;;28.21;39.45;99109.16;8344465;28;20049;-75
2022/07/14 15:08:31;;;;;;;3.40;2.55;;;;;;;28.61;40.00;99096.81;8417641;28;20063;-75
2022/07/14 15:12:33;;;;;;;2.65;2.35;;;;;;;28.06;39.60;99106.66;8394675;28;20067;-75
2022/07/14 15:16:35;;;;;;;3.45;2.55;;;;;;;27.80;39.46;99088.13;8390362;28;20123;-76
2022/07/14 15:20:36;;;;;;;8.75;2.63;;;;;;;27.33;40.64;99087.34;8421816;28;20044;-74
2022/07/14 15:24:40;;;;;;;5.07;2.50;;;;;;;26.92;40.49;99084.78;8376457;28;20059;-74
2022/07/14 15:28:41;;;;;;;6.95;2.63;;;;;;;26.72;42.20;99086.63;8377146;28;20043;-74
2022/07/14 15:32:42;;;;;;;7.32;2.78;;;;;;;26.56;42.99;99061.53;8429604;28;20040;-74
2022/07/14 15:36:43;;;;;;;5.72;2.50;;;;;;;26.33;43.76;99054.72;8431937;28;20044;-74
2022/07/14 15:45:04;;;;;;;8.60;2.72;;;;;;;25.93;43.31;99058.34;8429824;28;20040;-75
2022/07/14 15:49:06;;;;;;;3.00;2.33;;;;;;;25.85;44.00;99062.41;8379209;28;20044;-75
2022/07/14 15:53:08;;;;;;;7.30;2.70;;;;;;;25.76;43.68;99053.78;8378408;28;20085;-75
2022/07/14 15:57:09;;;;;;;7.18;2.72;;;;;;;25.64;44.52;99064.16;8393470;28;20048;-74
2022/07/14 16:01:10;;;;;;;5.57;2.88;;;;;;;25.48;44.77;99050.09;8408223;28;20044;-74
2022/07/14 16:05:11;;;;;;;6.47;2.60;;;;;;;25.25;45.31;99036.09;8430495;28;20503;-74
2022/07/14 16:09:12;;;;;;;7.35;2.92;;;;;;;25.06;46.16;99056.75;8394715;28;20132;-74
2022/07/14 16:13:13;;;;;;;6.57;2.90;;;;;;;24.95;47.60;99044.25;8416091;28;20105;-73
2022/07/14 16:17:15;;;;;;;4.40;2.97;;;;;;;24.75;49.86;99024.59;8430299;28;20044;-74
2022/07/14 16:21:16;;;;;;;7.63;3.17;;;;;;;24.56;52.04;99031.44;8408769;28;20040;-74
2022/07/14 16:25:21;;;;;;;8.10;3.28;;;;;;;24.43;54.13;99027.56;8425234;28;20065;-73
2022/07/14 16:29:22;;;;;;;10.13;3.33;;;;;;;24.28;55.09;99012.28;8423405;28;20407;-75
2022/07/14 16:33:24;;;;;;;7.13;3.30;;;;;;;24.16;56.35;99004.44;8404071;28;20085;-75
2022/07/14 16:37:26;;;;;;;5.22;3.22;;;;;;;24.04;57.22;99007.66;8429108;28;20055;-74
2022/07/14 16:41:27;;;;;;;11.07;3.50;;;;;;;23.88;59.48;99006.13;8414941;28;20114;-74
2022/07/14 16:45:29;;;;;;;9.30;3.63;;;;;;;23.72;59.25;99007.75;8359244;28;20506;-74
2022/07/14 16:49:30;;;;;;;4.95;3.42;;;;;;;23.65;60.27;99002.25;8388200;28;20052;-74
2022/07/14 16:53:32;;;;;;;7.10;3.35;;;;;;;23.55;61.22;98995.59;8409859;28;20439;-74
2022/07/14 16:57:33;;;;;;;7.65;3.33;;;;;;;23.36;61.28;98991.28;8427245;28;20135;-74
2022/07/14 17:01:34;;;;;;;5.75;3.60;;;;;;;23.13;62.16;98999.97;8376647;28;20054;-74
2022/07/14 17:09:56;;;;;;;12.30;3.78;;;;;;;22.75;65.17;98998.00;8395430;28;20123;-73
2022/07/14 17:14:00;;;;;;;11.38;3.47;;;;;;;22.46;65.42;98988.13;8414007;28;20055;-74
2022/07/14 17:18:03;;;;;;;5.63;3.33;;;;;;;22.35;63.28;98970.78;8403905;28;20621;-74
2022/07/14 17:22:05;;;;;;;7.55;3.20;;;;;;;22.27;61.99;98998.28;8368036;28;20068;-74
2022/07/14 17:26:07;;;;;;;9.82;3.00;;;;;;;22.15;63.59;98995.91;8378408;28;20045;-74
2022/07/14 17:30:09;;;;;;;6.90;3.08;;;;;;;22.07;63.58;98977.78;8383017;28;20112;-74
2022/07/14 17:34:11;;;;;;;6.70;3.33;;;;;;;22.04;63.81;98977.78;8422908;28;20034;-73
2022/07/14 17:38:12;;;;;;;6.75;4.03;;;;;;;21.85;65.72;98971.41;8368528;28;20063;-73
2022/07/14 17:42:14;;;;;;;7.25;3.90;;;;;;;21.76;66.47;98972.94;8404061;28;20053;-74
2022/07/14 17:46:15;;;;;;;5.43;3.00;;;;;;;21.61;67.32;98971.28;8344624;28;20040;-74
2022/07/14 17:50:17;;;;;;;5.28;3.30;;;;;;;21.52;67.92;98979.09;8417944;28;20044;-74
2022/07/14 17:54:19;;;;;;;10.40;3.70;;;;;;;21.36;69.49;98965.66;8413495;28;20045;-73
2022/07/14 17:58:21;;;;;;;5.80;3.67;;;;;;;21.26;69.89;98961.66;8402413;28;20058;-74
2022/07/14 18:02:22;;;;;;;8.38;4.30;;;;;;;21.15;70.40;98944.34;8401324;28;20140;-74
2022/07/14 18:06:28;;;;;;;6.10;4.50;;;;;;;21.04;70.87;98965.44;8360761;28;20098;-75
2022/07/14 18:10:36;;;;;;;6.47;4.55;;;;;;;20.98;71.32;98953.22;8261119;28;20113;-75
2022/07/14 18:14:48;;;;;;;9.30;5.38;;;;;;;20.83;72.46;98924.09;8277885;28;20060;-74
2022/07/14 18:19:03;;;;;;;6.93;5.55;;;;;;;20.77;71.80;98956.59;8293156;28;20182;-74
2022/07/14 18:23:13;;;;;;;9.68;4.78;;;;;;;20.73;72.15;98955.00;8316784;28;20075;-74
2022/07/14 18:27:21;;;;;;;6.43;4.85;;;;;;;20.62;72.43;98921.97;8372052;28;20059;-75
2022/07/14 18:31:34;;;;;;;7.80;4.63;;;;;;;20.53;72.30;98944.22;8306122;28;20050;-74
2022/07/14 18:35:37;;;;;;;8.52;4.30;;;;;;;20.46;71.91;98957.88;8244989;28;20049;-74
2022/07/14 18:39:39;;;;;;;7.00;4.07;;;;;;;20.38;72.26;98972.69;8317216;28;20049;-73
2022/07/14 18:43:40;;;;;;;8.25;4.70;;;;;;;20.21;72.44;98989.72;8323571;28;20061;-73
2022/07/14 18:47:42;;;;;;;10.45;4.63;;;;;;;20.22;71.76;98985.81;8323394;28;20057;-74
2022/07/14 18:51:43;;;;;;;7.85;5.57;;;;;;;20.18;71.22;98985.00;8309971;28;20424;-74
2022/07/14 18:55:45;;;;;;;8.88;5.82;;;;;;;20.19;70.78;98964.66;8301731;28;20046;-74
2022/07/14 18:59:47;;;;;;;12.38;5.45;;;;;;;20.24;70.40;98950.59;8306452;28;20050;-74
2022/07/14 19:03:50;;;;;;;9.57;5.40;;;;;;;20.26;70.60;98937.28;8278973;28;20402;-74
2022/07/14 19:07:58;;;;;;;12.02;5.03;;;;;;;20.26;70.83;98953.72;8279734;28;20072;-74
2022/07/14 19:12:02;;;;;;;7.80;5.15;;;;;;;20.19;70.76;98964.66;8281521;28;20440;-74
2022/07/14 19:16:05;;;;;;;6.85;4.75;;;;;;;20.14;70.75;98956.75;8329195;28;20054;-74
2022/07/14 19:20:10;;;;;;;7.68;4.53;;;;;;;20.07;69.96;98948.44;8317597;28;20054;-74
2022/07/14 19:24:13;;;;;;;9.95;4.85;;;;;;;20.06;69.96;98953.13;8281512;28;20452;-73